Time;durP1;ratioP1;P1;durP2;ratioP2;P2;SDS_P1;SDS_P2;PMS_P1;PMS_P2;Temp;Humidity;BMP_temperature;BMP_pressure;BME280_temperature;BME280_humidity;BME280_pressure;Samples;Min_cycle;Max_cycle;Signal;HPM_P1;HPM_P2
2024/03/18 00:00:41;;;;;;;;;;;20.70;55.80;;;;;;1498250;78;716;-80
2024/03/18 00:02:43;;;;;;;;;;;20.80;55.80;;;;;;1487988;79;1482;-77
2024/03/18 00:04:45;;;;;;;;;;;20.70;55.80;;;;;;1484645;79;1148;-79
2024/03/18 00:06:47;;;;;;;;;;;20.80;55.90;;;;;;1499682;78;1977;-77
2024/03/18 00:08:49;;;;;;;;;;;20.80;55.90;;;;;;1486299;78;715;-76
2024/03/18 00:10:51;;;;;;;;;;;20.80;55.90;;;;;;1497356;78;749;-76
2024/03/18 00:12:53;;;;;;;;;;;20.70;55.90;;;;;;1553224;75;698;-75
2024/03/18 00:14:55;;;;;;;;;;;20.80;56.00;;;;;;1554719;75;1144;-76
2024/03/18 00:16:56;;;;;;;;;;;20.80;55.90;;;;;;1550082;75;1401;-77
2024/03/18 00:18:59;;;;;;;;;;;20.70;56.00;;;;;;1552810;75;726;-78
2024/03/18 00:21:01;;;;;;;;;;;20.70;55.90;;;;;;1550743;76;723;-78
2024/03/18 00:23:02;;;;;;;;;;;20.80;56.00;;;;;;1555888;76;617;-78
2024/03/18 00:25:06;;;;;;;;;;;20.80;56.00;;;;;;1552780;75;1935;-81
2024/03/18 00:27:08;;;;;;;;;;;20.80;56.00;;;;;;1543782;76;716;-77
2024/03/18 00:29:10;;;;;;;;;;;20.80;56.00;;;;;;1546650;75;717;-79
2024/03/18 00:31:12;;;;;;;;;;;20.70;56.00;;;;;;1547650;76;1347;-76
2024/03/18 00:33:13;;;;;;;;;;;20.80;56.00;;;;;;1547059;76;1146;-77
2024/03/18 00:35:15;;;;;;;;;;;20.80;56.00;;;;;;1553860;75;733;-79
2024/03/18 00:37:17;;;;;;;;;;;20.80;56.00;;;;;;1548149;76;701;-80
2024/03/18 00:39:19;;;;;;;;;;;20.70;56.00;;;;;;1556787;75;741;-76
2024/03/18 00:43:41;;;;;;;;;;;20.70;56.10;;;;;;1546480;75;1937;-77
2024/03/18 00:45:42;;;;;;;;;;;20.70;56.10;;;;;;1543800;75;1944;-80
2024/03/18 00:47:44;;;;;;;;;;;20.80;56.10;;;;;;1553298;76;741;-76
2024/03/18 00:49:46;;;;;;;;;;;20.70;56.20;;;;;;1555639;75;709;-78
2024/03/18 00:51:48;;;;;;;;;;;20.70;56.10;;;;;;1551300;76;713;-79
2024/03/18 00:53:50;;;;;;;;;;;20.70;56.10;;;;;;1549373;75;1132;-74
2024/03/18 00:55:52;;;;;;;;;;;20.80;56.10;;;;;;1552593;75;707;-78
2024/03/18 00:57:54;;;;;;;;;;;20.80;56.20;;;;;;1553745;76;611;-75
2024/03/18 00:59:56;;;;;;;;;;;20.70;56.20;;;;;;1554538;75;1387;-78
2024/03/18 01:01:58;;;;;;;;;;;20.70;56.10;;;;;;1551826;75;737;-78
2024/03/18 01:04:05;;;;;;;;;;;20.70;56.20;;;;;;1556231;75;1133;-76
2024/03/18 01:06:07;;;;;;;;;;;20.70;56.20;;;;;;1552245;76;1920;-76
2024/03/18 01:08:09;;;;;;;;;;;20.70;56.20;;;;;;1548842;75;765;-76
2024/03/18 01:10:11;;;;;;;;;;;20.70;56.30;;;;;;1556455;75;724;-77
2024/03/18 01:12:13;;;;;;;;;;;20.80;56.30;;;;;;1552763;75;646;-77
2024/03/18 01:14:15;;;;;;;;;;;20.80;56.30;;;;;;1552588;76;1464;-77
2024/03/18 01:16:17;;;;;;;;;;;20.70;56.30;;;;;;1556576;75;750;-77
2024/03/18 01:18:19;;;;;;;;;;;20.80;56.30;;;;;;1556180;75;772;-81
2024/03/18 01:20:21;;;;;;;;;;;20.70;56.30;;;;;;1553825;75;721;-77
2024/03/18 01:22:24;;;;;;;;;;;20.70;56.30;;;;;;1552731;75;724;-78
2024/03/18 01:24:27;;;;;;;;;;;20.70;56.30;;;;;;1537715;75;1197;-76
2024/03/18 01:26:28;;;;;;;;;;;20.70;56.30;;;;;;1555258;75;2072;-77
2024/03/18 01:28:30;;;;;;;;;;;20.70;56.30;;;;;;1548032;76;1454;-80
2024/03/18 01:30:32;;;;;;;;;;;20.70;56.40;;;;;;1544965;75;790;-74
2024/03/18 01:32:34;;;;;;;;;;;20.70;56.30;;;;;;1551910;75;763;-79
2024/03/18 01:34:36;;;;;;;;;;;20.70;56.30;;;;;;1546958;75;1122;-73
2024/03/18 01:36:38;;;;;;;;;;;20.70;56.40;;;;;;1558534;75;647;-73
2024/03/18 01:38:40;;;;;;;;;;;20.80;56.40;;;;;;1555685;75;644;-77
2024/03/18 01:40:42;;;;;;;;;;;20.70;56.30;;;;;;1549481;75;730;-78
2024/03/18 01:42:44;;;;;;;;;;;20.80;56.40;;;;;;1551113;75;1457;-75
2024/03/18 01:44:53;;;;;;;;;;;20.70;56.40;;;;;;1548460;76;1106;-74
2024/03/18 01:46:55;;;;;;;;;;;20.80;56.40;;;;;;1558443;75;1905;-74
2024/03/18 01:48:57;;;;;;;;;;;20.70;56.40;;;;;;1553496;75;725;-73
2024/03/18 01:50:59;;;;;;;;;;;20.80;56.40;;;;;;1553199;75;714;-73
2024/03/18 01:53:01;;;;;;;;;;;20.70;56.40;;;;;;1561520;75;780;-76
2024/03/18 01:55:03;;;;;;;;;;;20.70;56.40;;;;;;1548045;75;1484;-74
2024/03/18 01:57:05;;;;;;;;;;;20.70;56.30;;;;;;1549698;75;805;-76
2024/03/18 01:59:07;;;;;;;;;;;20.80;56.40;;;;;;1555497;75;734;-74
2024/03/18 02:01:09;;;;;;;;;;;20.70;56.40;;;;;;1555001;75;741;-75
2024/03/18 02:03:11;;;;;;;;;;;20.70;56.40;;;;;;1559982;75;1129;-73
2024/03/18 02:05:14;;;;;;;;;;;20.80;56.40;;;;;;1558322;75;919;-73
2024/03/18 02:07:24;;;;;;;;;;;20.70;56.40;;;;;;1558340;76;1922;-74
2024/03/18 02:09:25;;;;;;;;;;;20.70;56.40;;;;;;1554985;75;1483;-74
2024/03/18 02:11:27;;;;;;;;;;;20.70;56.40;;;;;;1550851;75;735;-77
2024/03/18 02:13:31;;;;;;;;;;;20.80;56.40;;;;;;1542571;75;1133;-76
2024/03/18 02:15:33;;;;;;;;;;;20.70;56.40;;;;;;1554805;75;747;-73
2024/03/18 02:17:35;;;;;;;;;;;20.80;56.40;;;;;;1559061;75;738;-73
2024/03/18 02:19:37;;;;;;;;;;;20.80;56.40;;;;;;1561527;75;606;-77
2024/03/18 02:21:39;;;;;;;;;;;20.70;56.30;;;;;;1557202;76;769;-75
2024/03/18 02:23:41;;;;;;;;;;;20.70;56.40;;;;;;1548526;75;1571;-79
2024/03/18 02:25:44;;;;;;;;;;;20.70;56.40;;;;;;1552902;75;1915;-74
2024/03/18 02:27:46;;;;;;;;;;;20.70;56.40;;;;;;1557282;75;738;-79
2024/03/18 02:29:48;;;;;;;;;;;20.70;56.40;;;;;;1560270;75;754;-74
2024/03/18 02:31:49;;;;;;;;;;;20.70;56.40;;;;;;1550090;75;735;-74
2024/03/18 02:33:52;;;;;;;;;;;20.70;56.40;;;;;;1543726;75;1136;-74
2024/03/18 02:35:54;;;;;;;;;;;20.70;56.40;;;;;;1548532;76;712;-75
2024/03/18 02:37:56;;;;;;;;;;;20.70;56.40;;;;;;1552173;76;1438;-77
2024/03/18 02:39:58;;;;;;;;;;;20.70;56.40;;;;;;1561237;75;758;-73
2024/03/18 02:42:00;;;;;;;;;;;20.80;56.40;;;;;;1557223;75;717;-73
2024/03/18 02:44:02;;;;;;;;;;;20.70;56.40;;;;;;1559763;75;1141;-74
2024/03/18 02:46:04;;;;;;;;;;;20.70;56.30;;;;;;1554708;76;1946;-74
2024/03/18 02:48:06;;;;;;;;;;;20.70;56.30;;;;;;1554291;75;731;-75
2024/03/18 02:50:09;;;;;;;;;;;20.70;56.30;;;;;;1556612;75;739;-73
2024/03/18 02:52:11;;;;;;;;;;;20.70;56.30;;;;;;1550866;75;1449;-76
2024/03/18 02:54:13;;;;;;;;;;;20.80;56.30;;;;;;1561275;75;1133;-74
2024/03/18 02:56:15;;;;;;;;;;;20.80;56.40;;;;;;1558896;75;707;-78
2024/03/18 02:58:17;;;;;;;;;;;20.70;56.40;;;;;;1556798;75;606;-73
2024/03/18 03:00:20;;;;;;;;;;;20.80;56.40;;;;;;1553110;75;733;-76
2024/03/18 03:02:22;;;;;;;;;;;20.70;56.40;;;;;;1553192;75;737;-75
2024/03/18 03:04:23;;;;;;;;;;;20.70;56.30;;;;;;1542635;75;1120;-76
2024/03/18 03:06:25;;;;;;;;;;;20.70;56.40;;;;;;1553356;75;1946;-73
2024/03/18 03:08:27;;;;;;;;;;;20.70;56.30;;;;;;1550520;75;688;-74
2024/03/18 03:10:29;;;;;;;;;;;20.70;56.40;;;;;;1549936;75;651;-74
2024/03/18 03:12:31;;;;;;;;;;;20.70;56.50;;;;;;1556090;75;670;-73
2024/03/18 03:14:33;;;;;;;;;;;20.80;56.40;;;;;;1558574;75;1141;-75
2024/03/18 03:16:35;;;;;;;;;;;20.70;56.40;;;;;;1556369;75;758;-74
2024/03/18 03:18:37;;;;;;;;;;;20.70;56.40;;;;;;1553596;75;705;-75
2024/03/18 03:20:39;;;;;;;;;;;20.80;56.40;;;;;;1552847;76;1469;-75
2024/03/18 03:22:41;;;;;;;;;;;20.70;56.40;;;;;;1552376;75;682;-73
2024/03/18 03:24:43;;;;;;;;;;;20.80;56.40;;;;;;1547973;75;1198;-73
2024/03/18 03:26:44;;;;;;;;;;;20.80;56.40;;;;;;1559641;76;1942;-73
2024/03/18 03:28:46;;;;;;;;;;;20.70;56.40;;;;;;1551726;75;564;-74
2024/03/18 03:30:48;;;;;;;;;;;20.70;56.40;;;;;;1556903;76;612;-72
2024/03/18 03:32:50;;;;;;;;;;;20.70;56.50;;;;;;1557792;75;695;-74
2024/03/18 03:34:52;;;;;;;;;;;20.80;56.40;;;;;;1548821;75;1309;-72
2024/03/18 03:36:55;;;;;;;;;;;20.70;56.50;;;;;;1554035;75;765;-72
2024/03/18 03:38:57;;;;;;;;;;;20.70;56.40;;;;;;1555058;75;751;-74
2024/03/18 03:40:59;;;;;;;;;;;20.70;56.50;;;;;;1561750;75;719;-77
2024/03/18 03:43:00;;;;;;;;;;;20.70;56.40;;;;;;1551890;76;714;-79
2024/03/18 03:45:02;;;;;;;;;;;20.70;56.40;;;;;;1556800;75;1180;-74
2024/03/18 03:47:04;;;;;;;;;;;20.70;56.40;;;;;;1556290;75;1919;-75
2024/03/18 03:49:06;;;;;;;;;;;20.70;56.40;;;;;;1550861;75;1565;-73
2024/03/18 03:51:08;;;;;;;;;;;20.70;56.50;;;;;;1558535;75;664;-74
2024/03/18 03:53:10;;;;;;;;;;;20.70;56.50;;;;;;1559635;75;1145;-74
2024/03/18 03:55:15;;;;;;;;;;;20.70;56.40;;;;;;1561107;75;664;-75
2024/03/18 03:57:17;;;;;;;;;;;20.70;56.40;;;;;;1556367;75;716;-74
2024/03/18 03:59:19;;;;;;;;;;;20.70;56.50;;;;;;1551445;75;752;-77
2024/03/18 04:01:21;;;;;;;;;;;20.70;56.50;;;;;;1550861;75;719;-78
2024/03/18 04:03:24;;;;;;;;;;;20.80;56.50;;;;;;1557554;75;1506;-73
2024/03/18 04:05:26;;;;;;;;;;;20.70;56.50;;;;;;1552119;76;595;-74
2024/03/18 04:07:27;;;;;;;;;;;20.80;56.50;;;;;;1542685;75;1932;-75
2024/03/18 04:09:29;;;;;;;;;;;20.70;56.50;;;;;;1555646;75;747;-74
2024/03/18 04:11:31;;;;;;;;;;;20.70;56.50;;;;;;1546857;75;590;-74
2024/03/18 04:13:33;;;;;;;;;;;20.70;56.50;;;;;;1544753;76;1140;-80
2024/03/18 04:15:36;;;;;;;;;;;20.70;56.50;;;;;;1541854;75;839;-79
2024/03/18 04:17:38;;;;;;;;;;;20.70;56.50;;;;;;1557959;75;1568;-76
2024/03/18 04:19:40;;;;;;;;;;;20.70;56.60;;;;;;1555488;75;750;-75
2024/03/18 04:21:42;;;;;;;;;;;20.70;56.50;;;;;;1559512;75;753;-76
2024/03/18 04:23:43;;;;;;;;;;;20.70;56.50;;;;;;1544387;75;1252;-73
2024/03/18 04:25:45;;;;;;;;;;;20.70;56.50;;;;;;1555378;75;709;-75
2024/03/18 04:27:47;;;;;;;;;;;20.80;56.60;;;;;;1560276;76;1932;-75
2024/03/18 04:29:49;;;;;;;;;;;20.70;56.50;;;;;;1549239;75;740;-74
2024/03/18 04:31:51;;;;;;;;;;;20.80;56.50;;;;;;1550037;75;1733;-73
2024/03/18 04:33:53;;;;;;;;;;;20.70;56.50;;;;;;1542152;75;1198;-74
2024/03/18 04:35:55;;;;;;;;;;;20.80;56.60;;;;;;1555589;75;637;-74
2024/03/18 04:37:57;;;;;;;;;;;20.70;56.60;;;;;;1552907;75;730;-72
2024/03/18 04:39:59;;;;;;;;;;;20.70;56.50;;;;;;1559006;75;725;-77
2024/03/18 04:42:01;;;;;;;;;;;20.70;56.60;;;;;;1555683;76;718;-73
2024/03/18 04:44:03;;;;;;;;;;;20.70;56.60;;;;;;1550648;75;1510;-73
2024/03/18 04:46:05;;;;;;;;;;;20.70;56.60;;;;;;1544296;75;743;-77
2024/03/18 04:48:10;;;;;;;;;;;20.70;56.60;;;;;;1555231;75;1950;-71
2024/03/18 04:50:11;;;;;;;;;;;20.70;56.60;;;;;;1548114;75;959;-73
2024/03/18 04:52:13;;;;;;;;;;;20.70;56.60;;;;;;1554002;75;723;-73
2024/03/18 04:54:15;;;;;;;;;;;20.70;56.60;;;;;;1558617;76;1113;-74
2024/03/18 04:56:17;;;;;;;;;;;20.70;56.60;;;;;;1556368;75;700;-76
2024/03/18 04:58:19;;;;;;;;;;;20.70;56.60;;;;;;1551058;75;1489;-74
2024/03/18 05:00:21;;;;;;;;;;;20.70;56.60;;;;;;1554711;75;635;-76
2024/03/18 05:02:23;;;;;;;;;;;20.80;56.60;;;;;;1556611;75;789;-74
2024/03/18 05:04:26;;;;;;;;;;;20.80;56.70;;;;;;1555561;76;1163;-80
2024/03/18 05:06:27;;;;;;;;;;;20.70;56.60;;;;;;1558307;75;817;-75
2024/03/18 05:08:30;;;;;;;;;;;20.70;56.60;;;;;;1555110;76;1939;-74
2024/03/18 05:10:32;;;;;;;;;;;20.70;56.70;;;;;;1550646;75;742;-74
2024/03/18 05:12:34;;;;;;;;;;;20.70;57.00;;;;;;1551629;75;1492;-74
2024/03/18 05:14:35;;;;;;;;;;;20.70;56.90;;;;;;1551649;75;1131;-77
2024/03/18 05:16:39;;;;;;;;;;;20.70;56.80;;;;;;1549294;75;723;-79
2024/03/18 05:18:40;;;;;;;;;;;20.70;56.80;;;;;;1548069;75;698;-75
2024/03/18 05:20:42;;;;;;;;;;;20.80;56.80;;;;;;1537310;75;703;-74
2024/03/18 05:22:44;;;;;;;;;;;20.80;56.80;;;;;;1552098;76;657;-75
2024/03/18 05:24:46;;;;;;;;;;;20.80;56.80;;;;;;1557095;75;1163;-78
2024/03/18 05:26:49;;;;;;;;;;;20.80;56.80;;;;;;1546738;75;1930;-75
2024/03/18 05:28:51;;;;;;;;;;;20.70;56.70;;;;;;1550535;75;695;-78
2024/03/18 05:30:53;;;;;;;;;;;20.70;56.80;;;;;;1560506;75;724;-76
2024/03/18 05:32:54;;;;;;;;;;;20.70;56.70;;;;;;1548549;76;723;-77
2024/03/18 05:34:56;;;;;;;;;;;20.70;56.70;;;;;;1551892;76;1118;-75
2024/03/18 05:36:58;;;;;;;;;;;20.80;56.70;;;;;;1546471;76;732;-76
2024/03/18 05:39:00;;;;;;;;;;;20.80;56.70;;;;;;1547497;75;842;-77
2024/03/18 05:41:02;;;;;;;;;;;20.80;56.60;;;;;;1543584;75;1511;-76
2024/03/18 05:43:04;;;;;;;;;;;20.80;56.60;;;;;;1551445;75;648;-78
2024/03/18 05:45:06;;;;;;;;;;;20.80;56.70;;;;;;1554756;76;1177;-68
2024/03/18 05:47:08;;;;;;;;;;;20.80;56.70;;;;;;1552387;75;1932;-80
2024/03/18 05:49:10;;;;;;;;;;;20.80;56.70;;;;;;1547313;75;709;-82
2024/03/18 05:51:11;;;;;;;;;;;20.80;56.60;;;;;;1550386;75;740;-76
2024/03/18 05:53:14;;;;;;;;;;;20.70;56.60;;;;;;1561051;75;1133;-77
2024/03/18 05:55:17;;;;;;;;;;;20.80;56.60;;;;;;1554523;76;1481;-75
2024/03/18 05:57:19;;;;;;;;;;;20.80;56.60;;;;;;1554413;75;699;-74
2024/03/18 05:59:21;;;;;;;;;;;20.80;56.60;;;;;;1553111;75;707;-76
2024/03/18 06:01:23;;;;;;;;;;;20.80;56.50;;;;;;1552482;75;708;-78
2024/03/18 06:03:26;;;;;;;;;;;20.80;56.50;;;;;;1548217;75;1154;-77
2024/03/18 06:05:28;;;;;;;;;;;20.80;56.50;;;;;;1558624;75;1289;-76
2024/03/18 06:07:30;;;;;;;;;;;20.80;55.20;;;;;;1556652;75;1922;-77
2024/03/18 06:09:32;;;;;;;;;;;20.80;55.90;;;;;;1550026;75;1487;-76
2024/03/18 06:11:34;;;;;;;;;;;20.80;56.10;;;;;;1555505;75;666;-76
2024/03/18 06:13:36;;;;;;;;;;;20.70;56.10;;;;;;1556647;75;1145;-75
2024/03/18 06:15:38;;;;;;;;;;;20.80;56.10;;;;;;1551932;76;717;-76
2024/03/18 06:17:40;;;;;;;;;;;20.70;56.10;;;;;;1554535;76;792;-77
2024/03/18 06:19:42;;;;;;;;;;;20.70;56.10;;;;;;1538038;75;667;-79
2024/03/18 06:21:45;;;;;;;;;;;20.80;56.10;;;;;;1552780;76;723;-75
2024/03/18 06:23:51;;;;;;;;;;;20.70;56.10;;;;;;1547020;76;1494;-76
2024/03/18 06:25:58;;;;;;;;;;;20.70;56.10;;;;;;1549506;76;1123;-75
2024/03/18 06:27:59;;;;;;;;;;;20.80;56.10;;;;;;1551433;75;1899;-74
2024/03/18 06:30:02;;;;;;;;;;;20.80;56.10;;;;;;1551198;76;711;-78
2024/03/18 06:32:04;;;;;;;;;;;20.70;56.10;;;;;;1551645;76;616;-75
2024/03/18 06:34:07;;;;;;;;;;;20.70;56.00;;;;;;1555786;76;1122;-78
2024/03/18 06:36:09;;;;;;;;;;;20.70;56.10;;;;;;1560513;76;696;-76
2024/03/18 06:38:11;;;;;;;;;;;20.80;56.00;;;;;;1552003;76;1447;-78
2024/03/18 06:40:13;;;;;;;;;;;20.70;56.10;;;;;;1556855;75;641;-75
2024/03/18 06:42:15;;;;;;;;;;;20.80;56.00;;;;;;1552450;76;719;-75
2024/03/18 06:44:16;;;;;;;;;;;20.70;56.10;;;;;;1550720;76;1148;-77
2024/03/18 06:46:18;;;;;;;;;;;20.80;56.10;;;;;;1545011;75;799;-75
2024/03/18 06:48:20;;;;;;;;;;;20.80;56.10;;;;;;1548449;75;1946;-77
2024/03/18 06:50:22;;;;;;;;;;;20.80;56.10;;;;;;1544440;75;740;-80
2024/03/18 06:52:24;;;;;;;;;;;20.80;56.00;;;;;;1555357;76;1509;-77
2024/03/18 06:54:26;;;;;;;;;;;20.80;56.10;;;;;;1555148;76;1124;-75
2024/03/18 06:56:28;;;;;;;;;;;20.70;56.00;;;;;;1555798;76;739;-75
2024/03/18 06:58:29;;;;;;;;;;;20.80;56.00;;;;;;1553856;75;706;-75
2024/03/18 07:00:31;;;;;;;;;;;20.80;56.00;;;;;;1544663;76;659;-76
2024/03/18 07:02:34;;;;;;;;;;;20.80;56.00;;;;;;1547156;75;779;-75
2024/03/18 07:04:36;;;;;;;;;;;20.80;55.90;;;;;;1556913;75;1153;-76
2024/03/18 07:06:38;;;;;;;;;;;20.70;55.90;;;;;;1557896;76;1396;-79
2024/03/18 07:08:40;;;;;;;;;;;20.80;55.90;;;;;;1556185;76;1907;-77
2024/03/18 07:10:42;;;;;;;;;;;20.70;56.00;;;;;;1550777;76;723;-78
2024/03/18 07:12:44;;;;;;;;;;;20.70;56.00;;;;;;1557086;75;626;-78
2024/03/18 07:14:47;;;;;;;;;;;20.80;55.90;;;;;;1543324;76;1134;-79
2024/03/18 07:16:49;;;;;;;;;;;20.70;55.90;;;;;;1560139;76;762;-78
2024/03/18 07:18:51;;;;;;;;;;;20.70;55.90;;;;;;1551583;76;1516;-75
2024/03/18 07:20:53;;;;;;;;;;;20.80;55.90;;;;;;1547903;75;722;-76
2024/03/18 07:22:55;;;;;;;;;;;20.70;55.90;;;;;;1555316;76;697;-79
2024/03/18 07:24:57;;;;;;;;;;;20.80;55.90;;;;;;1551829;76;1181;-77
2024/03/18 07:26:59;;;;;;;;;;;20.80;55.90;;;;;;1551047;76;761;-77
2024/03/18 07:29:01;;;;;;;;;;;20.80;55.90;;;;;;1548437;75;1938;-76
2024/03/18 07:31:08;;;;;;;;;;;20.70;55.80;;;;;;1551384;75;762;-77
2024/03/18 07:33:06;;;;;;;;;;;20.80;55.80;;;;;;1548734;75;1615;-76
2024/03/18 07:35:08;;;;;;;;;;;20.80;55.90;;;;;;1556022;75;729;-77
2024/03/18 07:37:10;;;;;;;;;;;20.80;55.80;;;;;;1553343;76;730;-74
2024/03/18 07:39:12;;;;;;;;;;;20.80;55.80;;;;;;1542111;75;604;-78
2024/03/18 07:41:14;;;;;;;;;;;20.70;55.80;;;;;;1552432;75;728;-81
2024/03/18 07:43:16;;;;;;;;;;;20.80;55.80;;;;;;1556979;76;1176;-74
2024/03/18 07:45:17;;;;;;;;;;;20.80;55.80;;;;;;1548472;75;752;-74
2024/03/18 07:47:19;;;;;;;;;;;20.70;55.70;;;;;;1552143;75;1479;-79
2024/03/18 07:49:21;;;;;;;;;;;20.80;55.70;;;;;;1550959;75;1936;-76
2024/03/18 07:51:23;;;;;;;;;;;20.80;55.70;;;;;;1552033;76;683;-75
2024/03/18 07:53:25;;;;;;;;;;;20.80;55.70;;;;;;1543994;75;1118;-77
2024/03/18 07:55:27;;;;;;;;;;;20.80;55.70;;;;;;1548012;76;730;-79
2024/03/18 07:57:29;;;;;;;;;;;20.80;55.70;;;;;;1558567;75;740;-75
2024/03/18 07:59:32;;;;;;;;;;;20.80;55.70;;;;;;1538441;76;719;-76
2024/03/18 08:01:37;;;;;;;;;;;20.80;55.70;;;;;;1553993;76;1502;-78
2024/03/18 08:03:39;;;;;;;;;;;20.70;55.70;;;;;;1553896;76;1063;-75
2024/03/18 08:05:41;;;;;;;;;;;20.80;55.70;;;;;;1549256;76;730;-75
2024/03/18 08:07:42;;;;;;;;;;;20.70;55.60;;;;;;1547132;76;697;-75
2024/03/18 08:09:45;;;;;;;;;;;20.80;55.60;;;;;;1556676;75;1947;-76
2024/03/18 08:11:47;;;;;;;;;;;20.80;55.60;;;;;;1554531;76;722;-74
2024/03/18 08:13:49;;;;;;;;;;;20.80;55.60;;;;;;1555632;76;1149;-75
2024/03/18 08:15:51;;;;;;;;;;;20.80;55.60;;;;;;1545607;76;1525;-76
2024/03/18 08:17:53;;;;;;;;;;;20.70;55.60;;;;;;1558893;76;636;-75
2024/03/18 08:19:55;;;;;;;;;;;20.80;55.60;;;;;;1551673;75;894;-77
2024/03/18 08:21:57;;;;;;;;;;;20.70;55.50;;;;;;1548193;76;724;-74
2024/03/18 08:23:58;;;;;;;;;;;20.80;55.50;;;;;;1548736;76;1161;-75
2024/03/18 08:26:00;;;;;;;;;;;20.80;55.50;;;;;;1557964;76;715;-75
2024/03/18 08:28:02;;;;;;;;;;;20.80;55.50;;;;;;1559048;76;1963;-75
2024/03/18 08:30:06;;;;;;;;;;;20.80;55.50;;;;;;1555976;75;1503;-75
2024/03/18 08:32:07;;;;;;;;;;;20.70;55.50;;;;;;1550846;76;733;-77
2024/03/18 08:34:09;;;;;;;;;;;20.70;55.50;;;;;;1555261;76;1145;-75
2024/03/18 08:36:12;;;;;;;;;;;20.80;55.50;;;;;;1550104;75;729;-78
2024/03/18 08:38:14;;;;;;;;;;;20.80;55.50;;;;;;1538170;76;722;-78
2024/03/18 08:40:16;;;;;;;;;;;20.80;55.50;;;;;;1539645;76;699;-81
2024/03/18 08:42:18;;;;;;;;;;;20.80;55.50;;;;;;1552060;75;665;-75
2024/03/18 08:44:20;;;;;;;;;;;20.80;55.50;;;;;;1548041;76;1516;-78
2024/03/18 08:46:22;;;;;;;;;;;20.80;55.50;;;;;;1557054;76;610;-74
2024/03/18 08:48:24;;;;;;;;;;;20.70;55.40;;;;;;1540456;76;1939;-77
2024/03/18 08:50:26;;;;;;;;;;;20.80;55.40;;;;;;1539336;76;700;-77
2024/03/18 08:52:28;;;;;;;;;;;20.80;55.40;;;;;;1550436;75;697;-84
2024/03/18 08:54:30;;;;;;;;;;;20.80;55.40;;;;;;1548398;75;1112;-75
2024/03/18 08:56:32;;;;;;;;;;;20.80;55.50;;;;;;1546018;75;916;-74
2024/03/18 08:58:34;;;;;;;;;;;20.70;55.40;;;;;;1547540;76;1461;-75
2024/03/18 09:00:36;;;;;;;;;;;20.70;55.40;;;;;;1546296;75;735;-75
2024/03/18 09:02:38;;;;;;;;;;;20.70;55.40;;;;;;1539928;75;583;-77
2024/03/18 09:04:40;;;;;;;;;;;20.80;55.30;;;;;;1545622;75;1158;-77
2024/03/18 09:06:43;;;;;;;;;;;20.80;55.40;;;;;;1542931;75;727;-78
2024/03/18 09:08:47;;;;;;;;;;;20.80;55.40;;;;;;1551746;76;1908;-76
2024/03/18 09:10:49;;;;;;;;;;;20.70;55.40;;;;;;1554332;76;728;-75
2024/03/18 09:12:51;;;;;;;;;;;20.70;55.40;;;;;;1553432;76;1585;-82
2024/03/18 09:14:53;;;;;;;;;;;20.80;55.30;;;;;;1547654;76;1134;-76
2024/03/18 09:16:57;;;;;;;;;;;20.80;55.30;;;;;;1553896;76;836;-79
2024/03/18 09:18:59;;;;;;;;;;;20.70;55.30;;;;;;1550314;76;722;-78
2024/03/18 09:21:00;;;;;;;;;;;20.80;55.30;;;;;;1549853;75;725;-75
2024/03/18 09:23:02;;;;;;;;;;;20.70;55.30;;;;;;1553328;76;723;-76
2024/03/18 09:25:06;;;;;;;;;;;20.70;55.30;;;;;;1552265;75;1096;-77
2024/03/18 09:27:08;;;;;;;;;;;20.80;55.30;;;;;;1554029;75;1572;-78
2024/03/18 09:29:10;;;;;;;;;;;20.70;55.30;;;;;;1547575;75;1937;-75
2024/03/18 09:31:15;;;;;;;;;;;20.70;55.30;;;;;;1547018;75;1350;-77
2024/03/18 09:33:17;;;;;;;;;;;20.70;55.30;;;;;;1553211;75;1197;-75
2024/03/18 09:35:19;;;;;;;;;;;20.70;55.20;;;;;;1540494;75;1552;-76
2024/03/18 09:37:20;;;;;;;;;;;20.70;55.30;;;;;;1551847;76;1332;-75
2024/03/18 09:39:22;;;;;;;;;;;20.70;55.20;;;;;;1551533;75;1289;-78
2024/03/18 09:41:24;;;;;;;;;;;20.80;55.20;;;;;;1545770;75;1216;-74
2024/03/18 09:43:26;;;;;;;;;;;20.80;55.20;;;;;;1553873;76;1253;-75
2024/03/18 09:45:28;;;;;;;;;;;20.80;55.20;;;;;;1545444;76;731;-76
2024/03/18 09:47:34;;;;;;;;;;;20.70;55.20;;;;;;1552839;75;732;-78
2024/03/18 09:49:33;;;;;;;;;;;20.70;55.20;;;;;;1546112;75;1907;-77
2024/03/18 09:51:37;;;;;;;;;;;20.70;55.20;;;;;;1544004;76;769;-80
2024/03/18 09:53:39;;;;;;;;;;;20.70;55.20;;;;;;1549159;76;1600;-76
2024/03/18 09:55:41;;;;;;;;;;;20.80;55.20;;;;;;1541076;76;656;-78
2024/03/18 09:57:43;;;;;;;;;;;20.70;55.20;;;;;;1517849;77;1268;-77
2024/03/18 09:59:45;;;;;;;;;;;20.80;55.20;;;;;;1554227;76;711;-79
2024/03/18 10:01:46;;;;;;;;;;;20.70;55.20;;;;;;1556680;76;794;-76
2024/03/18 10:03:50;;;;;;;;;;;20.70;55.20;;;;;;1559047;76;1144;-75
2024/03/18 10:05:52;;;;;;;;;;;20.70;55.10;;;;;;1547369;75;727;-81
2024/03/18 10:07:57;;;;;;;;;;;20.70;55.10;;;;;;1556605;75;1542;-75
2024/03/18 10:09:58;;;;;;;;;;;20.70;55.20;;;;;;1548941;76;1937;-78
2024/03/18 10:12:00;;;;;;;;;;;20.70;55.10;;;;;;1555206;76;662;-78
2024/03/18 10:14:02;;;;;;;;;;;20.80;55.10;;;;;;1550648;76;1142;-76
2024/03/18 10:16:04;;;;;;;;;;;20.70;55.10;;;;;;1553249;76;705;-75
2024/03/18 10:18:10;;;;;;;;;;;20.70;55.10;;;;;;1551732;76;772;-75
2024/03/18 10:20:22;;;;;;;;;;;20.80;55.20;;;;;;1548719;75;798;-76
2024/03/18 10:22:25;;;;;;;;;;;20.80;55.10;;;;;;1555508;75;1513;-78
2024/03/18 10:24:27;;;;;;;;;;;20.70;55.10;;;;;;1519457;77;1163;-79
2024/03/18 10:26:31;;;;;;;;;;;20.70;55.10;;;;;;1551609;76;766;-76
2024/03/18 10:28:34;;;;;;;;;;;20.80;55.10;;;;;;1556319;75;760;-77
2024/03/18 10:30:37;;;;;;;;;;;20.80;55.10;;;;;;1551732;76;1921;-79
2024/03/18 10:32:38;;;;;;;;;;;20.70;55.10;;;;;;1550528;76;593;-76
2024/03/18 10:34:42;;;;;;;;;;;20.80;55.10;;;;;;1547862;76;1171;-76
2024/03/18 10:36:44;;;;;;;;;;;20.80;55.10;;;;;;1551321;75;1475;-77
2024/03/18 10:38:46;;;;;;;;;;;20.70;55.10;;;;;;1556052;75;932;-76
2024/03/18 10:40:47;;;;;;;;;;;20.70;55.10;;;;;;1550293;75;719;-78
2024/03/18 10:42:49;;;;;;;;;;;20.70;55.00;;;;;;1555981;75;863;-78
2024/03/18 10:45:05;;;;;;;;;;;20.70;55.10;;;;;;1549206;76;1151;-78
2024/03/18 10:47:07;;;;;;;;;;;20.80;55.10;;;;;;1550960;75;1121;-76
2024/03/18 10:49:10;;;;;;;;;;;20.70;55.10;;;;;;1553399;75;2179;-77
2024/03/18 10:51:12;;;;;;;;;;;20.80;55.10;;;;;;1543761;75;1477;-79
2024/03/18 10:53:18;;;;;;;;;;;20.70;55.00;;;;;;1550653;76;1170;-76
2024/03/18 10:55:22;;;;;;;;;;;20.70;55.10;;;;;;1554321;76;751;-77
2024/03/18 10:57:24;;;;;;;;;;;20.70;55.10;;;;;;1553262;76;732;-80
2024/03/18 10:59:26;;;;;;;;;;;20.70;55.10;;;;;;1554287;76;742;-75
2024/03/18 11:01:29;;;;;;;;;;;20.70;55.00;;;;;;1551446;76;755;-81
2024/03/18 11:03:31;;;;;;;;;;;20.70;55.00;;;;;;1554421;76;1190;-77
2024/03/18 11:05:33;;;;;;;;;;;20.70;55.00;;;;;;1553554;76;1558;-77
2024/03/18 11:07:35;;;;;;;;;;;20.80;55.00;;;;;;1551555;75;690;-79
2024/03/18 11:09:39;;;;;;;;;;;20.70;55.00;;;;;;1553405;76;1914;-77
2024/03/18 11:11:42;;;;;;;;;;;20.80;55.00;;;;;;1554532;76;616;-75
2024/03/18 11:13:44;;;;;;;;;;;20.80;55.10;;;;;;1493324;78;1195;-77
2024/03/18 11:15:50;;;;;;;;;;;20.70;55.00;;;;;;1492476;78;720;-76
2024/03/18 11:17:52;;;;;;;;;;;20.70;55.00;;;;;;1488010;79;1249;-76
2024/03/18 11:19:54;;;;;;;;;;;20.70;55.00;;;;;;1487535;78;649;-78
2024/03/18 11:21:59;;;;;;;;;;;20.70;55.00;;;;;;1491224;78;1112;-76
2024/03/18 11:24:02;;;;;;;;;;;20.70;55.00;;;;;;1542388;76;1188;-77
2024/03/18 11:26:05;;;;;;;;;;;20.70;55.00;;;;;;1546039;76;737;-78
2024/03/18 11:28:07;;;;;;;;;;;20.70;55.00;;;;;;1546990;76;743;-76
2024/03/18 11:30:10;;;;;;;;;;;20.70;55.00;;;;;;1545288;76;1947;-79
2024/03/18 11:32:12;;;;;;;;;;;20.70;55.00;;;;;;1540698;76;1665;-77
2024/03/18 11:34:20;;;;;;;;;;;20.70;55.00;;;;;;1550266;76;1186;-77
2024/03/18 11:36:20;;;;;;;;;;;20.70;55.00;;;;;;1511896;76;1678;-77
2024/03/18 11:38:21;;;;;;;;;;;20.80;55.00;;;;;;1538715;76;1150;-77
2024/03/18 11:40:23;;;;;;;;;;;20.70;55.00;;;;;;1540697;76;717;-78
2024/03/18 11:42:25;;;;;;;;;;;20.80;55.00;;;;;;1542251;76;755;-80
2024/03/18 11:44:27;;;;;;;;;;;20.80;55.00;;;;;;1533871;76;1134;-74
2024/03/18 11:46:29;;;;;;;;;;;20.70;55.00;;;;;;1537201;76;1476;-75
2024/03/18 11:48:31;;;;;;;;;;;20.80;55.00;;;;;;1540037;76;675;-78
2024/03/18 11:50:34;;;;;;;;;;;20.70;55.00;;;;;;1537023;76;1916;-77
2024/03/18 11:52:35;;;;;;;;;;;20.70;55.00;;;;;;1546713;76;756;-79
2024/03/18 11:54:37;;;;;;;;;;;20.70;54.90;;;;;;1539102;76;1157;-76
2024/03/18 11:56:39;;;;;;;;;;;20.60;54.80;;;;;;1539407;76;712;-76
2024/03/18 11:58:41;;;;;;;;;;;20.80;55.00;;;;;;1541635;76;716;-76
2024/03/18 12:00:43;;;;;;;;;;;20.70;55.00;;;;;;1539864;76;1575;-76
2024/03/18 12:02:45;;;;;;;;;;;20.70;55.00;;;;;;1548148;76;662;-78
2024/03/18 12:04:47;;;;;;;;;;;20.70;55.00;;;;;;1542170;76;1162;-78
2024/03/18 12:06:50;;;;;;;;;;;20.70;55.00;;;;;;1541107;76;597;-75
2024/03/18 12:08:52;;;;;;;;;;;20.70;55.00;;;;;;1543027;76;824;-75
2024/03/18 12:10:54;;;;;;;;;;;20.70;55.00;;;;;;1539577;76;1944;-78